Time;durP1;ratioP1;P1;durP2;ratioP2;P2;SDS_P1;SDS_P2;PMS_P1;PMS_P2;Temp;Humidity;BMP_temperature;BMP_pressure;BME280_temperature;BME280_humidity;BME280_pressure;Samples;Min_cycle;Max_cycle;Signal;HPM_P1;HPM_P2
2022/08/11 03:42:40;;;;;;;421.05;397.42;;;;;;;22.69;69.17;100776.47;4997993;28;102481;-57
2022/08/11 03:45:21;;;;;;;322.98;305.88;;;;;;;22.68;69.36;100772.88;4949661;28;102697;-57
2022/08/11 03:48:13;;;;;;;302.25;286.25;;;;;;;22.69;69.18;100785.59;4937298;28;104113;-57
2022/08/11 03:51:05;;;;;;;309.63;293.08;;;;;;;22.70;69.06;100781.66;4957673;28;102373;-57
2022/08/11 03:53:48;;;;;;;309.70;293.25;;;;;;;22.70;68.99;100775.31;4967799;28;102939;-57
2022/08/11 03:56:47;;;;;;;374.25;353.65;;;;;;;22.70;69.06;100776.13;4954703;28;102114;-57
2022/08/11 03:59:57;;;;;;;370.17;349.83;;;;;;;22.69;69.25;100768.97;4971742;28;104021;-56
2022/08/11 04:02:54;;;;;;;356.58;337.30;;;;;;;22.69;69.12;100774.50;4972076;28;102103;-57
2022/08/11 04:05:53;;;;;;;316.08;299.30;;;;;;;22.70;69.13;100770.56;4972901;28;103662;-57
2022/08/11 04:09:03;;;;;;;305.33;289.30;;;;;;;22.70;69.25;100764.22;4948074;28;102399;-57
2022/08/11 04:12:07;;;;;;;293.45;278.08;;;;;;;22.68;69.09;100767.31;4971829;28;103879;-57
2022/08/11 04:18:18;;;;;;;326.40;308.88;;;;;;;22.68;69.08;100772.88;4963205;28;102192;-57
2022/08/11 04:21:05;;;;;;;298.42;282.92;;;;;;;22.70;69.02;100775.31;4968461;28;102565;-57
2022/08/11 04:24:11;;;;;;;304.13;288.00;;;;;;;22.69;69.09;100768.97;4952822;28;103671;-57
2022/08/11 04:27:18;;;;;;;304.55;288.30;;;;;;;22.70;68.98;100769.75;4932559;28;102103;-57
2022/08/11 04:30:06;;;;;;;296.33;280.75;;;;;;;22.68;68.88;100770.09;4937082;28;102285;-57
2022/08/11 04:32:57;;;;;;;;;;;;;;;22.70;68.87;100767.78;4966248;28;102438;-57
2022/08/11 04:35:37;;;;;;;312.63;296.23;;;;;;;22.71;69.07;100777.72;4945164;28;103797;-57
2022/08/11 04:38:32;;;;;;;332.17;314.42;;;;;;;22.71;68.79;100771.38;4952067;28;102172;-57
2022/08/11 04:43:19;;;;;;;310.30;293.98;;;;;;;22.72;69.34;100782.13;4951511;28;102478;-57
2022/08/11 04:44:55;;;;;;;291.15;275.90;;;;;;;22.72;69.19;100772.97;4949216;28;102316;-57
2022/08/11 05:03:06;;;;;;;301.50;285.60;;;;;;;22.75;69.37;100773.06;4957929;28;102442;-57
2022/08/11 05:06:00;;;;;;;322.30;305.40;;;;;;;22.75;69.31;100780.59;4951576;28;102727;-57
2022/08/11 05:09:08;;;;;;;320.05;302.92;;;;;;;22.75;69.46;100773.06;4940815;28;102434;-57
2022/08/11 05:11:58;;;;;;;318.80;301.90;;;;;;;22.74;69.34;100771.47;4925075;28;103849;-56
2022/08/11 05:37:17;;;;;;;;;;;;;;;22.81;69.61;100759.78;4951043;28;102363;-56
2022/08/11 05:56:33;;;;;;;334.77;316.63;;;;;;;22.82;70.12;100760.59;4938556;28;103925;-57
2022/08/11 05:59:00;;;;;;;331.30;313.20;;;;;;;22.82;69.83;100746.72;4939868;28;102082;-57
2022/08/11 06:01:29;;;;;;;346.63;328.17;;;;;;;22.82;69.77;100741.97;4933914;28;102010;-57
2022/08/11 06:04:13;;;;;;;364.75;344.95;;;;;;;22.83;69.95;100745.53;4934193;28;102607;-57
2022/08/11 06:06:49;;;;;;;442.33;417.45;;;;;;;22.83;69.94;100745.53;4932472;28;103966;-57
2022/08/11 06:09:23;;;;;;;338.38;320.17;;;;;;;22.83;69.88;100745.53;4943683;28;102795;-57
2022/08/11 06:11:51;;;;;;;332.13;314.20;;;;;;;22.82;69.89;100738.38;4939669;28;102175;-56
2022/08/11 06:14:19;;;;;;;308.30;291.90;;;;;;;22.83;69.60;100735.28;4930562;28;102309;-56
2022/08/11 06:16:48;;;;;;;351.13;332.27;;;;;;;22.85;69.98;100743.22;4931960;28;103882;-56
2022/08/11 06:19:15;;;;;;;369.58;349.27;;;;;;;22.85;69.84;100734.91;4931602;28;102469;-58
2022/08/11 06:21:45;;;;;;;347.23;328.47;;;;;;;22.85;69.99;100729.34;4936441;28;102469;-57
2022/08/11 06:24:14;;;;;;;345.83;327.23;;;;;;;22.86;69.87;100717.09;4928771;28;102670;-56
2022/08/11 06:26:49;;;;;;;361.20;341.65;;;;;;;22.86;69.85;100728.19;4935372;28;104013;-56
2022/08/11 06:29:17;;;;;;;333.33;315.52;;;;;;;22.85;69.88;100721.84;4935778;28;102627;-57
2022/08/11 06:31:51;;;;;;;343.50;325.10;;;;;;;22.87;69.93;100718.72;4932594;28;102565;-56
2022/08/11 06:34:30;;;;;;;377.00;356.33;;;;;;;22.85;69.87;100721.84;4935526;28;102590;-57
2022/08/11 06:37:00;;;;;;;;;;;;;;;22.86;69.84;100723.44;4934497;28;104233;-56
2022/08/11 06:39:38;;;;;;;306.23;289.88;;;;;;;22.85;70.02;100732.94;4937058;28;102425;-56
2022/08/11 06:42:08;;;;;;;339.83;321.83;;;;;;;22.86;69.86;100739.28;4946674;28;102448;-56
2022/08/11 06:44:40;;;;;;;358.48;339.35;;;;;;;22.86;69.83;100739.28;4953686;28;102616;-56
2022/08/11 06:47:09;;;;;;;342.20;323.67;;;;;;;22.86;69.94;100742.06;4947915;28;103913;-57
2022/08/11 06:52:31;;;;;;;344.63;325.95;;;;;;;22.86;69.82;100755.94;4952064;28;102458;-56
2022/08/11 06:55:06;;;;;;;323.65;306.38;;;;;;;22.84;69.99;100747.97;4951977;28;102301;-56
2022/08/11 07:00:29;;;;;;;332.05;314.20;;;;;;;22.86;69.50;100772.59;4943675;28;102355;-57
2022/08/11 07:03:02;;;;;;;313.10;296.42;;;;;;;22.85;69.66;100771.78;4981543;28;102365;-56
2022/08/11 07:05:43;;;;;;;330.92;313.25;;;;;;;22.86;69.71;100773.38;4991831;28;101979;-57
2022/08/11 07:30:20;;;;;;;303.58;287.15;;;;;;;22.91;69.89;100775.94;4931321;28;102612;-57
2022/08/11 07:32:50;;;;;;;331.80;314.20;;;;;;;22.89;69.85;100771.88;4947790;28;104021;-56
2022/08/11 07:35:23;;;;;;;319.75;302.77;;;;;;;22.87;69.63;100768.66;4969052;28;102316;-57
2022/08/11 10:16:45;;;;;;;44.53;41.85;;;;;;;22.81;70.08;100803.38;4930432;28;102450;-57
2022/08/11 10:19:13;;;;;;;39.88;37.65;;;;;;;22.83;70.07;100806.59;4941188;28;104055;-56
2022/08/11 10:21:43;;;;;;;85.75;81.05;;;;;;;22.83;70.09;100801.03;4926439;28;102174;-57
2022/08/11 10:27:02;;;;;;;72.85;68.90;;;;;;;22.84;69.98;100803.47;4934147;28;102389;-56
2022/08/11 10:35:08;;;;;;;59.50;56.20;;;;;;;22.85;70.33;100804.28;4925559;28;102403;-56
2022/08/11 10:37:36;;;;;;;55.22;51.90;;;;;;;22.85;70.15;100795.94;4917757;28;102892;-56
2022/08/11 10:40:04;;;;;;;55.10;52.03;;;;;;;22.85;70.11;100787.63;4914463;28;104278;-56
2022/08/11 11:00:57;;;;;;;40.58;37.78;;;;;;;22.87;69.82;100796.41;5003132;28;109066;-54
2022/08/11 11:03:26;;;;;;;47.28;44.47;;;;;;;22.85;69.79;100793.19;5009953;28;102118;-55
2022/08/11 11:06:00;;;;;;;48.17;45.17;;;;;;;22.87;69.96;100793.66;5010170;28;102259;-55
2022/08/11 11:11:19;;;;;;;36.80;34.42;;;;;;;22.86;70.23;100790.03;5009624;28;104076;-56
2022/08/11 11:19:23;;;;;;;35.05;32.88;;;;;;;22.85;70.15;100804.28;5012648;28;102498;-55
2022/08/11 11:21:54;;;;;;;34.50;32.35;;;;;;;22.86;70.12;100801.13;5009232;28;104020;-57
2022/08/11 11:24:36;;;;;;;36.78;34.17;;;;;;;22.85;70.31;100799.53;5012515;28;102345;-56
2022/08/11 11:27:13;;;;;;;33.60;31.45;;;;;;;22.87;70.40;100796.41;5010382;28;102131;-56
2022/08/11 11:29:54;;;;;;;30.77;28.83;;;;;;;22.86;70.30;100806.69;5011712;28;102527;-55
2022/08/11 11:32:29;;;;;;;30.02;28.13;;;;;;;22.87;70.44;100813.06;5008427;28;107773;-55
2022/08/11 11:35:38;;;;;;;34.60;32.38;;;;;;;22.86;70.35;100812.22;5010233;28;102434;-55
2022/08/11 11:38:08;;;;;;;29.45;27.45;;;;;;;22.86;70.31;100806.69;4982428;27;103832;-56
2022/08/11 11:40:36;;;;;;;30.65;28.77;;;;;;;22.87;70.27;100808.31;5010538;28;102365;-56
2022/08/11 11:43:05;;;;;;;29.13;27.27;;;;;;;22.87;70.25;100801.97;5008429;27;104539;-55
2022/08/11 11:45:31;;;;;;;;;;;;;;;22.87;70.33;100802.78;5005043;28;101990;-55
2022/08/11 11:47:59;;;;;;;28.00;26.20;;;;;;;22.87;70.21;100797.22;5010236;28;102212;-55
2022/08/11 11:50:28;;;;;;;;;;;;;;;22.87;70.10;100805.53;5010766;28;102917;-55
2022/08/11 11:52:55;;;;;;;23.13;21.63;;;;;;;22.87;70.15;100797.22;5003744;28;104207;-56
2022/08/11 11:55:24;;;;;;;26.15;24.40;;;;;;;22.88;70.19;100787.72;5003790;28;102376;-55
2022/08/11 12:03:25;;;;;;;27.45;25.75;;;;;;;22.90;70.29;100781.81;5007951;28;103871;-55
2022/08/11 12:05:53;;;;;;;25.10;23.52;;;;;;;22.87;70.25;100772.25;4998018;28;102264;-55
2022/08/11 12:08:23;;;;;;;25.25;23.55;;;;;;;22.88;70.07;100776.63;5009954;28;102601;-55
2022/08/11 12:13:40;;;;;;;23.80;22.20;;;;;;;22.88;70.41;100775.81;5004577;28;107797;-55
2022/08/11 12:16:09;;;;;;;26.80;24.85;;;;;;;22.88;70.32;100770.28;5001369;28;102562;-55
2022/08/11 12:18:36;;;;;;;24.70;23.05;;;;;;;22.89;70.22;100774.66;5005111;27;102559;-55
2022/08/11 12:21:04;;;;;;;25.13;23.42;;;;;;;22.88;70.49;100784.16;5011729;27;102188;-58
2022/08/11 12:29:06;;;;;;;22.90;21.40;;;;;;;22.88;70.53;100781.38;5009910;28;102039;-55
2022/08/11 12:31:36;;;;;;;29.02;27.13;;;;;;;22.87;70.59;100779.78;5016841;28;102278;-55
2022/08/11 12:34:05;;;;;;;24.63;23.02;;;;;;;22.86;70.46;100778.13;5014319;28;104061;-55
2022/08/11 12:36:35;;;;;;;23.35;21.85;;;;;;;22.86;70.45;100773.38;5015490;28;102424;-55
2022/08/11 12:39:04;;;;;;;27.17;25.38;;;;;;;22.85;70.38;100770.97;5011989;28;102625;-55
2022/08/11 12:45:26;;;;;;;23.13;21.58;;;;;;;22.87;70.52;100768.66;5012698;28;103893;-55
2022/08/11 12:47:08;;;;;;;22.70;21.17;;;;;;;22.86;70.56;100767.03;5003253;28;102579;-55
2022/08/11 12:52:32;;;;;;;23.33;21.42;;;;;;;22.86;70.57;100756.75;5016020;28;102236;-56
2022/08/11 12:55:05;;;;;;;23.95;22.33;;;;;;;22.87;70.57;100763.13;5014185;28;103841;-55
2022/08/11 13:05:56;;;;;;;16.13;14.98;;;;;;;22.86;70.62;100764.25;5014709;28;104504;-55
2022/08/11 13:08:25;;;;;;;16.30;15.00;;;;;;;22.85;70.58;100765.44;5016797;28;102251;-55
2022/08/11 13:13:43;;;;;;;15.60;14.40;;;;;;;22.85;70.86;100770.97;4998374;28;102383;-55
2022/08/11 13:16:10;;;;;;;13.98;12.88;;;;;;;22.86;70.78;100767.03;5011193;28;103413;-55
2022/08/11 13:18:41;;;;;;;14.55;13.25;;;;;;;22.84;70.72;100759.06;5014637;28;102474;-56
2022/08/11 13:21:09;;;;;;;13.73;12.68;;;;;;;22.85;70.75;100766.22;5014497;28;102206;-55
2022/08/11 13:23:37;;;;;;;13.90;12.70;;;;;;;22.85;70.74;100759.88;5010881;28;102119;-54
2022/08/11 13:26:07;;;;;;;14.95;13.75;;;;;;;22.86;70.62;100767.03;5001124;28;103891;-55
2022/08/11 13:28:35;;;;;;;14.85;13.65;;;;;;;22.85;70.88;100759.88;5002906;28;102366;-55
2022/08/11 13:31:11;;;;;;;13.73;12.73;;;;;;;22.85;70.80;100754.31;5016181;28;102394;-55
2022/08/11 13:33:41;;;;;;;14.35;13.15;;;;;;;22.85;70.57;100766.22;5016753;28;102290;-55
2022/08/11 13:36:08;;;;;;;14.57;13.27;;;;;;;22.84;70.87;100758.28;5015284;28;104031;-55
2022/08/11 13:38:37;;;;;;;14.90;13.70;;;;;;;22.84;70.91;100763.81;5013166;28;102585;-55
2022/08/11 13:41:36;;;;;;;15.13;13.82;;;;;;;22.85;70.76;100759.88;5015343;28;102531;-55
2022/08/11 13:43:55;;;;;;;14.98;13.77;;;;;;;22.87;70.69;100768.66;5015500;28;102481;-55
2022/08/11 13:46:23;;;;;;;15.18;14.00;;;;;;;22.86;70.86;100761.47;5013771;28;104090;-56
2022/08/11 13:48:54;;;;;;;15.23;13.82;;;;;;;22.85;70.79;100759.88;5012951;28;104371;-55
2022/08/11 13:51:29;;;;;;;14.50;13.30;;;;;;;22.85;70.74;100759.88;5009776;28;102573;-56
2022/08/11 13:53:56;;;;;;;14.40;13.30;;;;;;;22.85;70.84;100766.22;5014024;28;103125;-55
2022/08/11 13:56:24;;;;;;;14.88;13.77;;;;;;;22.85;70.82;100769.00;5016322;28;104196;-55
2022/08/11 13:58:51;;;;;;;15.25;14.05;;;;;;;22.85;70.84;100770.97;5003753;28;102172;-56
2022/08/11 14:01:19;;;;;;;13.27;12.15;;;;;;;22.86;70.80;100767.03;5009950;28;102647;-55
2022/08/11 14:03:48;;;;;;;15.67;14.40;;;;;;;22.85;70.73;100765.44;5013663;28;102554;-56
2022/08/11 14:06:16;;;;;;;;;;;;;;;22.85;70.77;100762.66;5012368;28;104089;-56
2022/08/11 14:08:44;;;;;;;13.77;12.75;;;;;;;22.85;70.82;100766.22;5010803;28;102085;-55
2022/08/11 14:14:03;;;;;;;13.68;12.48;;;;;;;22.84;70.91;100763.81;5015976;28;102083;-55
2022/08/11 14:16:35;;;;;;;15.10;13.80;;;;;;;22.84;70.95;100763.81;5011989;28;103625;-55
2022/08/11 14:19:07;;;;;;;14.38;13.10;;;;;;;22.85;70.90;100765.44;5013820;28;102306;-55
2022/08/11 14:24:26;;;;;;;14.30;13.13;;;;;;;22.84;70.74;100769.38;5010018;28;102500;-56
2022/08/11 14:26:53;;;;;;;14.30;13.20;;;;;;;22.84;70.79;100761.84;5013423;28;103938;-56
2022/08/11 14:29:22;;;;;;;14.63;13.52;;;;;;;22.85;70.87;100770.97;5010096;28;102446;-55
2022/08/11 14:31:53;;;;;;;14.40;13.30;;;;;;;22.84;70.92;100761.06;5014990;28;102514;-55
2022/08/11 14:34:22;;;;;;;14.25;13.15;;;;;;;22.85;70.99;100760.69;5003989;28;102478;-55
2022/08/11 14:36:52;;;;;;;13.60;12.48;;;;;;;22.86;70.65;100755.94;5007137;28;103922;-56
2022/08/11 14:39:22;;;;;;;13.95;12.85;;;;;;;22.85;70.80;100755.13;5016857;28;102247;-56
2022/08/11 14:47:27;;;;;;;;;;;;;;;22.84;70.86;100764.63;5004246;28;104126;-56
2022/08/11 14:49:56;;;;;;;13.02;12.02;;;;;;;22.84;70.78;100769.38;5007515;28;102363;-56
2022/08/11 14:52:25;;;;;;;20.23;18.75;;;;;;;22.84;70.93;100758.28;5007509;28;102379;-56
2022/08/11 14:57:39;;;;;;;20.83;19.42;;;;;;;22.84;71.10;100763.81;5008540;28;103875;-56
2022/08/11 15:00:09;;;;;;;21.67;20.17;;;;;;;22.82;70.85;100755.84;5000263;28;102193;-56
2022/08/11 15:05:23;;;;;;;21.05;19.65;;;;;;;22.83;70.95;100742.75;5004074;28;102742;-56
2022/08/11 15:07:53;;;;;;;22.70;21.07;;;;;;;22.83;71.04;100757.47;5016668;28;103953;-56
2022/08/11 15:10:21;;;;;;;22.95;21.40;;;;;;;22.83;71.06;100762.19;5016901;28;102291;-56
2022/08/11 15:12:48;;;;;;;23.38;21.75;;;;;;;22.84;70.80;100759.06;5013542;28;102024;-56
2022/08/11 15:18:05;;;;;;;14.90;13.80;;;;;;;22.85;70.97;100770.97;5015069;28;103760;-56
2022/08/11 15:26:10;;;;;;;27.83;25.92;;;;;;;22.84;70.89;100769.38;4997471;28;102424;-56
2022/08/11 15:45:49;;;;;;;14.70;13.60;;;;;;;22.83;71.08;100773.28;5007017;28;102165;-56
2022/08/11 15:48:26;;;;;;;14.48;13.27;;;;;;;22.83;70.80;100751.91;5010878;28;102389;-53
2022/08/11 15:50:57;;;;;;;16.63;13.10;;;;;;;22.84;70.89;100761.06;5016114;28;104242;-55
2022/08/11 15:53:31;;;;;;;14.75;13.45;;;;;;;22.85;70.96;100748.78;5004844;28;103704;-55
2022/08/11 15:56:00;;;;;;;15.52;14.00;;;;;;;22.85;70.90;100748.78;5015735;28;102506;-56
2022/08/11 16:04:11;;;;;;;14.35;13.15;;;;;;;22.84;70.94;100739.66;5014939;28;102534;-56
2022/08/11 16:06:44;;;;;;;15.43;13.75;;;;;;;22.86;70.90;100744.84;5015056;28;102187;-56
2022/08/11 16:09:13;;;;;;;15.82;14.48;;;;;;;22.86;70.82;100750.38;5019621;28;102424;-56
2022/08/11 16:11:43;;;;;;;14.50;13.00;;;;;;;22.86;70.86;100755.94;5004486;28;104005;-55
2022/08/11 16:16:59;;;;;;;14.98;13.65;;;;;;;22.84;70.86;100752.72;5010464;28;102914;-55
2022/08/11 16:19:34;;;;;;;19.02;16.95;;;;;;;22.83;71.24;100751.09;5014098;28;102678;-56
2022/08/11 16:22:06;;;;;;;18.92;17.52;;;;;;;22.84;71.01;100741.63;4998919;28;104176;-56
2022/08/11 16:24:37;;;;;;;19.60;17.77;;;;;;;22.83;71.19;100746.38;4998748;28;102775;-55
2022/08/11 16:27:07;;;;;;;19.85;18.25;;;;;;;22.84;70.97;100741.63;5013990;28;102538;-56
2022/08/11 16:29:37;;;;;;;19.52;17.92;;;;;;;22.84;71.34;100741.63;5017886;28;102195;-54
2022/08/11 16:32:17;;;;;;;19.45;17.92;;;;;;;22.82;71.00;100750.28;5014618;28;103911;-55
2022/08/11 16:40:21;;;;;;;18.10;16.80;;;;;;;22.84;71.12;100753.53;5009745;28;102468;-56
2022/08/11 16:48:27;;;;;;;15.95;14.55;;;;;;;22.83;71.13;100762.19;4986149;28;102353;-56
2022/08/11 16:50:55;;;;;;;15.82;14.63;;;;;;;22.82;71.17;100760.59;4999718;28;102121;-56
2022/08/11 16:53:21;;;;;;;15.20;14.00;;;;;;;22.81;71.22;100754.22;4997344;28;103908;-56
2022/08/11 16:55:51;;;;;;;16.25;14.93;;;;;;;22.83;71.09;100762.19;4998725;28;102391;-56
2022/08/11 17:01:10;;;;;;;15.05;13.75;;;;;;;22.82;71.21;100777.22;4998930;28;102621;-55
2022/08/11 17:14:59;;;;;;;14.70;13.40;;;;;;;22.79;71.27;100799.00;4979143;28;103921;-55
2022/08/11 17:17:29;;;;;;;14.63;13.43;;;;;;;22.79;71.36;100796.22;4998096;28;101951;-56
2022/08/11 17:20:00;;;;;;;15.07;13.73;;;;;;;22.81;71.33;100792.28;4997499;28;102341;-56
2022/08/11 17:25:16;;;;;;;15.10;13.73;;;;;;;22.81;71.33;100797.81;4977242;28;108043;-56
2022/08/11 17:27:44;;;;;;;14.45;13.23;;;;;;;22.80;71.37;100797.00;4985324;28;102296;-55
2022/08/11 17:30:13;;;;;;;15.02;13.73;;;;;;;22.80;71.37;100799.78;4997558;28;102357;-56
2022/08/11 17:35:33;;;;;;;14.63;13.43;;;;;;;22.78;71.52;100802.09;4981355;28;103996;-56
2022/08/11 17:38:03;;;;;;;14.93;13.73;;;;;;;22.79;71.07;100798.16;4981868;28;108017;-55
2022/08/11 17:40:32;;;;;;;26.65;14.65;;;;;;;22.82;70.88;100793.88;4985246;28;102762;-59
2022/08/11 17:48:36;;;;;;;24.92;14.32;;;;;;;22.83;71.07;100801.03;4995642;28;102047;-58
2022/08/11 17:51:05;;;;;;;18.23;14.45;;;;;;;22.80;71.31;100797.00;4995431;28;102398;-58
2022/08/11 18:04:48;;;;;;;14.40;12.98;;;;;;;22.80;71.39;100835.88;4998975;28;102468;-58
